Annecy — V7KN2 — position and weather

sailwx.info

Track history (hours):
 
Tides and Currents Weather Stations Pressure Air Temp Water Temp Dewpoint Dewpoint Depression Visibility Wind Speed Wind Dir Waves Ship Positions

Annecy

Last reported at 2018-Jan-20 00:37 UTC. Time now 2018-Jan-23 02:08 UTC.
Position N 37°60' E 024°39'.

Length 175 m; draft 8.5 m.

Type: Cargo ship. MMSI: 538006176.

Date/timePositionNaut miles runAvg speedWind from/ knotsBaromVisibWave heightAir tempDewpointWater temp
2018-Jan-20 00:37N 37°60' E 024°39'112.2
2018-Jan-20 00:31N 37°58' E 024°38'611.9
2018-Jan-20 00:00N 37°53' E 024°35'612.2
2018-Jan-19 23:30N 37°49' E 024°29'612.6
2018-Jan-19 23:01N 37°46' E 024°22'812.2
2018-Jan-19 22:22N 37°41' E 024°14'512.4
2018-Jan-19 21:58N 37°37' E 024°11'612.5
2018-Jan-19 21:31N 37°32' E 024°07'612.7
2018-Jan-19 21:00N 37°27' E 024°03'612.7
2018-Jan-19 20:30N 37°21' E 023°59'612.7
2018-Jan-19 20:00N 37°16' E 023°54'612.5
2018-Jan-19 19:30N 37°11' E 023°50'612.7
2018-Jan-19 19:01N 37°05' E 023°46'612.7
2018-Jan-19 18:31N 36°60' E 023°43'712.3
2018-Jan-19 17:59N 36°54' E 023°39'43011.6
2018-Jan-18 04:55N 36°25' E 014°44'512.4
2018-Jan-18 04:30N 36°25' E 014°37'612.0
2018-Jan-18 03:58N 36°25' E 014°29'612.4
2018-Jan-18 03:30N 36°27' E 014°22'612.5
2018-Jan-18 03:01N 36°28' E 014°15'612.3
2018-Jan-18 02:30N 36°29' E 014°07'  
Track history (hours):
 
Tides and Currents Weather Stations Pressure Air Temp Water Temp Dewpoint Dewpoint Depression Visibility Wind Speed Wind Dir Waves Ship Positions

Annecy

Last reported at 2018-Jan-20 00:37 UTC. Time now 2018-Jan-23 02:08 UTC.
Position N 37°60' E 024°39'.

Length 175 m; draft 8.5 m.

Type: Cargo ship. MMSI: 538006176.

Date/timePositionNaut miles runAvg speedWind from/ knotsBaromVisibWave heightAir tempDewpointWater temp
2018-Jan-20 00:37N 37°60' E 024°39'112.2
2018-Jan-20 00:31N 37°58' E 024°38'611.9
2018-Jan-20 00:00N 37°53' E 024°35'612.2
2018-Jan-19 23:30N 37°49' E 024°29'612.6
2018-Jan-19 23:01N 37°46' E 024°22'812.2
2018-Jan-19 22:22N 37°41' E 024°14'512.4
2018-Jan-19 21:58N 37°37' E 024°11'612.5
2018-Jan-19 21:31N 37°32' E 024°07'612.7
2018-Jan-19 21:00N 37°27' E 024°03'612.7
2018-Jan-19 20:30N 37°21' E 023°59'612.7
2018-Jan-19 20:00N 37°16' E 023°54'612.5
2018-Jan-19 19:30N 37°11' E 023°50'612.7
2018-Jan-19 19:01N 37°05' E 023°46'612.7
2018-Jan-19 18:31N 36°60' E 023°43'712.3
2018-Jan-19 17:59N 36°54' E 023°39'43011.6
2018-Jan-18 04:55N 36°25' E 014°44'512.4
2018-Jan-18 04:30N 36°25' E 014°37'612.0
2018-Jan-18 03:58N 36°25' E 014°29'612.4
2018-Jan-18 03:30N 36°27' E 014°22'612.5
2018-Jan-18 03:01N 36°28' E 014°15'612.3
2018-Jan-18 02:30N 36°29' E 014°07'  

Dump ship's entire track history